createdAt,value
2023-02-19T00:01:22.026Z,1.70
2023-02-19T00:03:56.562Z,2.17
2023-02-19T00:06:24.810Z,2.40
2023-02-19T00:08:51.471Z,2.00
2023-02-19T00:11:23.970Z,2.25
2023-02-19T00:13:53.255Z,2.00
2023-02-19T00:16:31.296Z,2.00
2023-02-19T00:18:58.910Z,2.13
2023-02-19T00:21:25.924Z,2.05
2023-02-19T00:23:54.722Z,1.92
2023-02-19T00:26:21.922Z,2.17
2023-02-19T00:28:50.042Z,1.90
2023-02-19T00:31:19.525Z,1.63
2023-02-19T00:33:47.763Z,1.65
2023-02-19T00:36:14.689Z,1.88
2023-02-19T00:38:42.746Z,2.08
2023-02-19T00:41:19.725Z,1.60
2023-02-19T00:43:48.378Z,2.25
2023-02-19T00:46:16.445Z,1.90
2023-02-19T00:48:42.887Z,1.90
2023-02-19T00:51:09.818Z,1.77
2023-02-19T00:53:36.559Z,1.70
2023-02-19T00:56:03.374Z,1.75
2023-02-19T00:58:30.028Z,1.60
2023-02-19T01:00:56.907Z,1.90
2023-02-19T01:03:23.650Z,1.98
2023-02-19T01:05:51.552Z,1.90
2023-02-19T01:08:19.148Z,1.52
2023-02-19T01:10:46.194Z,1.48
2023-02-19T01:13:12.895Z,1.30
2023-02-19T01:15:39.385Z,1.55
2023-02-19T01:18:05.868Z,1.40
2023-02-19T01:20:32.461Z,1.73
2023-02-19T01:22:58.995Z,1.60
2023-02-19T01:25:25.423Z,1.40
2023-02-19T01:27:51.867Z,1.50
2023-02-19T01:30:18.524Z,1.35
2023-02-19T01:32:44.998Z,1.73
2023-02-19T01:35:11.480Z,1.65
2023-02-19T01:37:37.918Z,1.40
2023-02-19T01:40:04.630Z,1.50
2023-02-19T01:42:31.084Z,1.27
2023-02-19T01:45:23.106Z,1.20
2023-02-19T01:48:01.956Z,1.52
2023-02-19T01:50:32.465Z,1.75
2023-02-19T01:53:04.225Z,1.60
2023-02-19T01:55:31.812Z,1.60
2023-02-19T01:58:00.236Z,1.40
2023-02-19T02:00:26.907Z,1.63
2023-02-19T02:02:55.994Z,1.40
2023-02-19T02:05:59.107Z,1.35
2023-02-19T02:08:45.170Z,1.50
2023-02-19T02:11:12.576Z,1.67
2023-02-19T02:13:40.458Z,1.63
2023-02-19T02:16:14.092Z,1.83
2023-02-19T02:18:58.323Z,1.50
2023-02-19T02:21:57.115Z,1.25
2023-02-19T02:24:54.542Z,1.40
2023-02-19T02:27:38.148Z,1.10
2023-02-19T02:30:21.087Z,1.67
2023-02-19T02:32:59.552Z,1.63
2023-02-19T02:35:32.755Z,1.65
2023-02-19T02:38:04.807Z,1.40
2023-02-19T02:40:32.107Z,1.42
2023-02-19T02:43:00.671Z,1.67
2023-02-19T02:45:35.145Z,1.75
2023-02-19T02:48:20.402Z,1.60
2023-02-19T02:50:56.105Z,1.60
2023-02-19T02:53:53.654Z,1.45
2023-02-19T02:56:21.064Z,1.83
2023-02-19T02:58:50.172Z,1.90
2023-02-19T03:01:42.876Z,1.77
2023-02-19T03:04:23.935Z,1.60
2023-02-19T03:06:51.919Z,1.52
2023-02-19T03:09:30.038Z,1.80
2023-02-19T03:12:20.865Z,1.90
2023-02-19T03:15:09.850Z,2.22
2023-02-19T03:18:03.233Z,1.92
2023-02-19T03:20:33.842Z,1.90
2023-02-19T03:23:01.986Z,1.63
2023-02-19T03:25:52.653Z,1.30
2023-02-19T03:28:50.637Z,1.38
2023-02-19T03:31:20.930Z,1.27
2023-02-19T03:33:51.943Z,1.73
2023-02-19T03:36:25.598Z,1.40
2023-02-19T03:38:59.510Z,1.60
2023-02-19T03:41:48.091Z,1.50
2023-02-19T03:44:37.240Z,1.50
2023-02-19T03:47:20.249Z,1.30
2023-02-19T03:49:58.633Z,1.45
2023-02-19T03:52:54.472Z,1.23
2023-02-19T03:55:36.077Z,1.45
2023-02-19T03:58:13.093Z,1.15
2023-02-19T04:01:18.515Z,1.63
2023-02-19T04:03:54.107Z,1.65
2023-02-19T04:06:27.731Z,1.40
2023-02-19T04:08:58.149Z,1.42
2023-02-19T04:11:26.262Z,2.00
2023-02-19T04:14:19.135Z,1.48
2023-02-19T04:16:49.805Z,1.88
2023-02-19T04:19:20.653Z,1.70
2023-02-19T04:21:47.643Z,1.98
2023-02-19T04:24:22.365Z,1.60
2023-02-19T04:26:49.120Z,1.70
2023-02-19T04:29:15.534Z,2.13
2023-02-19T04:31:42.000Z,2.08
2023-02-19T04:34:08.436Z,1.85
2023-02-19T04:36:34.869Z,1.85
2023-02-19T04:39:01.280Z,1.52
2023-02-19T04:41:27.724Z,2.13
2023-02-19T04:43:54.166Z,1.98
2023-02-19T04:46:20.689Z,1.70
2023-02-19T04:48:47.233Z,1.80
2023-02-19T04:51:13.723Z,1.90
2023-02-19T04:53:40.169Z,2.00
2023-02-19T04:56:08.309Z,1.60
2023-02-19T04:58:35.202Z,1.75
2023-02-19T05:01:01.676Z,1.77
2023-02-19T05:03:28.106Z,1.50
2023-02-19T05:05:54.542Z,1.50
2023-02-19T05:08:21.088Z,1.70
2023-02-19T05:10:47.487Z,1.70
2023-02-19T05:13:13.962Z,1.42
2023-02-19T05:15:40.364Z,1.88
2023-02-19T05:18:06.766Z,1.77
2023-02-19T05:20:33.166Z,1.20
2023-02-19T05:22:59.582Z,1.33
2023-02-19T05:25:25.964Z,1.48
2023-02-19T05:28:12.329Z,1.30
2023-02-19T05:30:38.709Z,1.65
2023-02-19T05:33:05.130Z,1.38
2023-02-19T05:35:31.571Z,0.90
2023-02-19T05:37:57.978Z,1.20
2023-02-19T05:40:24.400Z,0.90
2023-02-19T05:42:50.797Z,1.02
2023-02-19T05:45:17.183Z,0.90
2023-02-19T05:47:43.581Z,1.02
2023-02-19T05:50:10.041Z,0.90
2023-02-19T05:52:36.466Z,1.00
2023-02-19T05:55:02.976Z,1.00
2023-02-19T05:57:29.376Z,0.90
2023-02-19T05:59:56.485Z,1.20
2023-02-19T06:02:22.979Z,0.80
2023-02-19T06:04:49.449Z,0.93
2023-02-19T06:07:15.841Z,0.80
2023-02-19T06:09:42.213Z,0.90
2023-02-19T06:12:08.663Z,0.80
2023-02-19T06:14:35.054Z,0.93
2023-02-19T06:17:01.457Z,0.93
2023-02-19T06:19:27.847Z,1.00
2023-02-19T06:21:54.269Z,0.90
2023-02-19T06:24:20.711Z,1.08
2023-02-19T06:26:47.122Z,1.10
2023-02-19T06:29:13.528Z,1.00
2023-02-19T06:31:40.098Z,0.82
2023-02-19T06:34:06.622Z,0.90
2023-02-19T06:36:33.389Z,1.00
2023-02-19T06:39:00.691Z,0.90
2023-02-19T06:41:27.077Z,1.00
2023-02-19T06:43:53.778Z,0.70
2023-02-19T06:46:20.295Z,0.70
2023-02-19T06:48:46.783Z,0.88
2023-02-19T06:51:19.330Z,0.80
2023-02-19T06:53:46.202Z,0.90
2023-02-19T06:56:29.026Z,1.17
2023-02-19T06:58:59.743Z,0.95
2023-02-19T07:01:27.711Z,0.80
2023-02-19T07:03:54.403Z,0.85
2023-02-19T07:06:25.299Z,0.80
2023-02-19T07:08:52.896Z,0.90
2023-02-19T07:11:19.414Z,0.90
2023-02-19T07:13:45.898Z,1.00
2023-02-19T07:16:13.092Z,0.80
2023-02-19T07:18:40.506Z,0.60
2023-02-19T07:21:12.986Z,0.80
2023-02-19T07:23:40.210Z,0.80
2023-02-19T07:26:14.185Z,1.00
2023-02-19T07:28:42.132Z,1.08
2023-02-19T07:31:09.361Z,0.90
2023-02-19T07:33:36.328Z,0.95
2023-02-19T07:36:02.859Z,0.98
2023-02-19T07:38:29.322Z,0.70
2023-02-19T07:40:58.515Z,0.90
2023-02-19T07:43:26.658Z,1.00
2023-02-19T07:45:53.154Z,0.70
2023-02-19T07:48:20.182Z,0.80
2023-02-19T07:50:57.938Z,0.70
2023-02-19T07:53:25.708Z,0.75
2023-02-19T07:55:52.247Z,0.90
2023-02-19T07:58:18.739Z,0.75
2023-02-19T08:00:45.336Z,1.05
2023-02-19T08:03:12.043Z,0.90
2023-02-19T08:05:43.043Z,0.63
2023-02-19T08:08:11.998Z,0.70
2023-02-19T08:10:56.989Z,0.70
2023-02-19T08:13:24.216Z,0.90
2023-02-19T08:16:16.076Z,0.90
2023-02-19T08:18:44.336Z,1.02
2023-02-19T08:21:11.610Z,0.90
2023-02-19T08:23:38.643Z,0.82
2023-02-19T08:26:05.663Z,1.20
2023-02-19T08:28:32.466Z,0.68
2023-02-19T08:31:02.127Z,0.90
2023-02-19T08:33:29.049Z,1.00
2023-02-19T08:35:55.506Z,0.85
2023-02-19T08:38:22.418Z,0.70
2023-02-19T08:40:48.823Z,0.70
2023-02-19T08:43:16.930Z,1.02
2023-02-19T08:45:45.012Z,0.82
2023-02-19T08:48:11.812Z,1.48
2023-02-19T08:50:38.771Z,1.00
2023-02-19T08:53:06.461Z,0.90
2023-02-19T08:55:33.888Z,0.90
2023-02-19T08:58:00.774Z,1.30
2023-02-19T09:00:27.419Z,1.15
2023-02-19T09:02:53.903Z,1.10
2023-02-19T09:05:20.302Z,1.10
2023-02-19T09:07:46.883Z,1.00
2023-02-19T09:10:14.166Z,0.70
2023-02-19T09:12:41.330Z,1.15
2023-02-19T09:15:08.312Z,1.27
2023-02-19T09:17:34.795Z,1.30
2023-02-19T09:20:01.244Z,1.70
2023-02-19T09:22:27.683Z,1.30
2023-02-19T09:24:54.114Z,2.35
2023-02-19T09:27:20.812Z,1.35
2023-02-19T09:29:47.456Z,1.23
2023-02-19T09:32:14.497Z,1.02
2023-02-19T09:34:41.077Z,0.77
2023-02-19T09:37:08.091Z,0.90
2023-02-19T09:39:35.376Z,0.68
2023-02-19T09:42:10.639Z,0.70
2023-02-19T09:44:40.189Z,0.88
2023-02-19T09:47:15.406Z,0.77
2023-02-19T09:49:49.849Z,0.90
2023-02-19T09:52:19.039Z,0.80
2023-02-19T09:54:46.768Z,0.93
2023-02-19T09:57:19.084Z,0.95
2023-02-19T09:59:52.056Z,0.90
2023-02-19T10:02:21.832Z,1.05
2023-02-19T10:04:51.184Z,0.85
2023-02-19T10:07:45.393Z,0.80
2023-02-19T10:10:14.763Z,0.95
2023-02-19T10:12:46.671Z,0.90
2023-02-19T10:15:22.408Z,1.00
2023-02-19T10:17:48.841Z,0.80
2023-02-19T10:20:18.953Z,1.13
2023-02-19T10:22:45.783Z,0.90
2023-02-19T10:25:18.078Z,1.60
2023-02-19T10:27:44.602Z,1.30
2023-02-19T10:30:20.627Z,1.88
2023-02-19T10:33:11.003Z,2.40
2023-02-19T10:35:53.319Z,1.65
2023-02-19T10:38:23.603Z,1.23
2023-02-19T10:40:57.858Z,0.90
2023-02-19T10:43:33.087Z,0.93
2023-02-19T10:46:03.264Z,1.30
2023-02-19T10:48:32.834Z,1.63
2023-02-19T10:51:04.889Z,1.33
2023-02-19T10:53:42.988Z,3.20
2023-02-19T10:56:23.904Z,1.45
2023-02-19T10:58:50.913Z,1.00
2023-02-19T11:01:22.942Z,1.58
2023-02-19T11:03:52.157Z,2.25
2023-02-19T11:06:22.007Z,1.30
2023-02-19T11:08:53.006Z,0.93
2023-02-19T11:11:30.626Z,1.85
2023-02-19T11:13:58.422Z,1.20
2023-02-19T11:16:39.465Z,0.80
2023-02-19T11:19:06.268Z,1.00
2023-02-19T11:21:33.438Z,1.25
2023-02-19T11:24:04.624Z,1.40
2023-02-19T11:26:38.029Z,1.30
2023-02-19T11:29:22.509Z,1.67
2023-02-19T11:31:49.333Z,2.95
2023-02-19T11:34:20.931Z,1.60
2023-02-19T11:37:07.534Z,2.90
2023-02-19T11:39:34.570Z,2.45
2023-02-19T11:42:24.166Z,1.25
2023-02-19T11:45:07.771Z,1.58
2023-02-19T11:47:59.122Z,3.08
2023-02-19T11:50:28.406Z,1.35
2023-02-19T11:53:16.548Z,1.00
2023-02-19T11:56:20.819Z,6.47
2023-02-19T11:59:28.842Z,1.80
2023-02-19T12:02:13.775Z,2.22
2023-02-19T12:05:38.790Z,2.70
2023-02-19T12:08:41.167Z,1.65
2023-02-19T12:11:44.717Z,3.63
2023-02-19T12:14:45.759Z,3.15
2023-02-19T12:17:33.948Z,1.35
2023-02-19T12:20:09.914Z,1.88
2023-02-19T12:22:52.686Z,1.33
2023-02-19T12:25:41.819Z,1.77
2023-02-19T12:28:23.474Z,1.65
2023-02-19T12:31:14.130Z,1.30
2023-02-19T12:33:43.449Z,1.90
2023-02-19T12:36:28.430Z,2.60
2023-02-19T12:39:07.588Z,1.30
2023-02-19T12:41:49.038Z,1.58
2023-02-19T12:44:34.622Z,1.30
2023-02-19T12:47:06.461Z,1.73
2023-02-19T12:49:37.042Z,1.10
2023-02-19T12:52:09.385Z,1.42
2023-02-19T12:54:41.789Z,1.50
2023-02-19T12:57:10.962Z,1.10
2023-02-19T12:59:43.884Z,0.95
2023-02-19T13:02:10.243Z,1.35
2023-02-19T13:04:49.848Z,1.20
2023-02-19T13:07:38.688Z,0.90
2023-02-19T13:10:11.089Z,1.10
2023-02-19T13:12:41.519Z,1.17
2023-02-19T13:15:18.480Z,1.42
2023-02-19T13:17:51.316Z,1.30
2023-02-19T13:20:28.184Z,1.25
2023-02-19T13:23:27.340Z,1.15
2023-02-19T13:26:31.190Z,1.40
2023-02-19T13:29:09.912Z,1.25
2023-02-19T13:31:54.628Z,1.85
2023-02-19T13:35:02.169Z,1.70
2023-02-19T13:37:33.177Z,1.40
2023-02-19T13:40:06.613Z,1.65
2023-02-19T13:42:35.886Z,1.30
2023-02-19T13:45:05.439Z,1.15
2023-02-19T13:47:53.752Z,1.30
2023-02-19T13:50:23.133Z,1.60
2023-02-19T13:52:51.061Z,1.85
2023-02-19T13:55:42.629Z,1.35
2023-02-19T13:58:33.784Z,1.33
2023-02-19T14:01:11.705Z,1.13
2023-02-19T14:03:54.105Z,1.60
2023-02-19T14:06:21.441Z,1.58
2023-02-19T14:09:00.162Z,2.40
2023-02-19T14:11:41.844Z,2.08
2023-02-19T14:14:41.636Z,1.55
2023-02-19T14:17:17.583Z,1.13
2023-02-19T14:19:53.329Z,1.77
2023-02-19T14:22:44.980Z,2.40
2023-02-19T14:25:34.065Z,1.52
2023-02-19T14:28:04.246Z,2.22
2023-02-19T14:30:34.594Z,1.40
2023-02-19T14:33:10.700Z,1.90
2023-02-19T14:35:42.310Z,1.70
2023-02-19T14:38:18.020Z,1.55
2023-02-19T14:40:47.039Z,1.90
2023-02-19T14:43:16.800Z,1.45
2023-02-19T14:46:07.529Z,1.92
2023-02-19T14:48:39.555Z,1.40
2023-02-19T14:51:22.095Z,2.55
2023-02-19T14:53:49.620Z,2.30
2023-02-19T14:56:26.336Z,1.70
2023-02-19T14:59:21.903Z,1.70
2023-02-19T15:01:55.925Z,1.80
2023-02-19T15:04:28.810Z,2.55
2023-02-19T15:06:57.052Z,1.40
2023-02-19T15:09:31.860Z,2.63
2023-02-19T15:11:59.113Z,1.48
2023-02-19T15:14:28.594Z,1.52
2023-02-19T15:17:00.064Z,1.90
2023-02-19T15:19:26.797Z,1.67
2023-02-19T15:21:55.014Z,1.80
2023-02-19T15:24:21.816Z,1.40
2023-02-19T15:26:51.624Z,1.35
2023-02-19T15:29:23.494Z,1.40
2023-02-19T15:31:56.055Z,1.50
2023-02-19T15:34:28.241Z,1.25
2023-02-19T15:37:01.653Z,1.85
2023-02-19T15:39:38.095Z,1.30
2023-02-19T15:42:07.447Z,1.80
2023-02-19T15:44:56.925Z,1.50
2023-02-19T15:48:08.569Z,1.67
2023-02-19T15:50:41.075Z,2.22
2023-02-19T15:53:14.438Z,1.30
2023-02-19T15:56:07.521Z,1.75
2023-02-19T15:59:13.311Z,1.90
2023-02-19T16:01:40.209Z,1.50
2023-02-19T16:04:12.863Z,1.70
2023-02-19T16:06:53.243Z,1.60
2023-02-19T16:09:23.083Z,2.10
2023-02-19T16:11:55.220Z,1.70
2023-02-19T16:14:39.673Z,1.52
2023-02-19T16:17:16.534Z,1.38
2023-02-19T16:19:42.885Z,1.77
2023-02-19T16:22:15.942Z,1.42
2023-02-19T16:24:45.505Z,1.90
2023-02-19T16:27:14.117Z,2.38
2023-02-19T16:29:40.955Z,2.67
2023-02-19T16:32:16.750Z,1.70
2023-02-19T16:34:50.475Z,1.73
2023-02-19T16:37:37.715Z,1.58
2023-02-19T16:40:07.198Z,1.50
2023-02-19T16:42:58.047Z,1.85
2023-02-19T16:45:27.106Z,1.30
2023-02-19T16:47:53.917Z,1.63
2023-02-19T16:50:23.094Z,1.50
2023-02-19T16:53:03.912Z,1.63
2023-02-19T16:55:37.490Z,1.73
2023-02-19T16:58:03.906Z,1.63
2023-02-19T17:00:31.353Z,2.03
2023-02-19T17:03:01.643Z,2.10
2023-02-19T17:05:30.820Z,2.17
2023-02-19T17:07:57.237Z,2.20
2023-02-19T17:10:26.533Z,2.63
2023-02-19T17:12:54.436Z,2.10
2023-02-19T17:15:21.720Z,2.33
2023-02-19T17:17:48.236Z,2.38
2023-02-19T17:20:17.429Z,1.88
2023-02-19T17:22:44.195Z,2.17
2023-02-19T17:25:10.622Z,2.30
2023-02-19T17:27:37.058Z,2.00
2023-02-19T17:30:09.943Z,1.50
2023-02-19T17:32:36.418Z,2.08
2023-02-19T17:35:02.903Z,2.30
2023-02-19T17:37:29.314Z,2.30
2023-02-19T17:39:55.750Z,1.90
2023-02-19T17:42:23.413Z,2.75
2023-02-19T17:44:51.774Z,2.70
2023-02-19T17:47:19.196Z,3.20
2023-02-19T17:49:45.663Z,2.65
2023-02-19T17:52:13.551Z,2.17
2023-02-19T17:54:39.954Z,2.63
2023-02-19T17:57:06.361Z,2.90
2023-02-19T17:59:32.755Z,1.88
2023-02-19T18:01:59.189Z,2.38
2023-02-19T18:04:25.589Z,1.60
2023-02-19T18:06:53.839Z,2.33
2023-02-19T18:09:22.262Z,1.55
2023-02-19T18:11:49.284Z,1.63
2023-02-19T18:14:15.680Z,1.77
2023-02-19T18:16:49.818Z,1.70
2023-02-19T18:19:16.816Z,1.67
2023-02-19T18:21:43.225Z,1.55
2023-02-19T18:24:09.627Z,1.73
2023-02-19T18:26:36.023Z,2.30
2023-02-19T18:29:02.578Z,1.55
2023-02-19T18:31:32.421Z,1.60
2023-02-19T18:33:58.887Z,1.55
2023-02-19T18:36:25.304Z,1.90
2023-02-19T18:38:51.716Z,1.95
2023-02-19T18:41:20.834Z,1.50
2023-02-19T18:43:48.312Z,3.03
2023-02-19T18:46:15.060Z,6.40
2023-02-19T18:48:41.562Z,2.20
2023-02-19T18:51:11.466Z,1.85
2023-02-19T18:53:38.064Z,1.85
2023-02-19T18:56:05.383Z,2.00
2023-02-19T18:58:31.798Z,1.95
2023-02-19T19:00:59.381Z,1.60
2023-02-19T19:03:25.960Z,2.00
2023-02-19T19:05:52.617Z,1.65
2023-02-19T19:08:19.046Z,2.20
2023-02-19T19:10:45.461Z,1.60
2023-02-19T19:13:11.875Z,2.17
2023-02-19T19:15:41.145Z,1.88
2023-02-19T19:18:08.763Z,2.03
2023-02-19T19:20:35.196Z,2.33
2023-02-19T19:23:01.631Z,1.65
2023-02-19T19:25:28.033Z,2.85
2023-02-19T19:27:56.311Z,1.55
2023-02-19T19:30:23.094Z,2.33
2023-02-19T19:32:50.344Z,2.08
2023-02-19T19:35:21.203Z,2.08
2023-02-19T19:37:48.073Z,1.80
2023-02-19T19:40:17.244Z,1.70
2023-02-19T19:42:44.661Z,2.35
2023-02-19T19:45:11.921Z,2.20
2023-02-19T19:47:38.389Z,2.25
2023-02-19T19:50:05.132Z,2.00
2023-02-19T19:52:31.554Z,2.05
2023-02-19T19:54:58.277Z,2.08
2023-02-19T19:57:24.704Z,2.00
2023-02-19T19:59:51.399Z,2.10
2023-02-19T20:02:18.281Z,2.58
2023-02-19T20:04:44.877Z,2.00
2023-02-19T20:07:11.310Z,1.90
2023-02-19T20:09:37.720Z,1.80
2023-02-19T20:12:04.941Z,1.70
2023-02-19T20:14:31.364Z,2.33
2023-02-19T20:16:58.235Z,1.80
2023-02-19T20:19:24.730Z,1.65
2023-02-19T20:21:53.053Z,1.80
2023-02-19T20:24:24.106Z,1.70
2023-02-19T20:26:52.743Z,1.67
2023-02-19T20:29:19.514Z,1.48
2023-02-19T20:31:50.708Z,1.85
2023-02-19T20:34:18.240Z,1.90
2023-02-19T20:36:46.992Z,1.60
2023-02-19T20:39:14.847Z,1.85
2023-02-19T20:41:48.660Z,2.05
2023-02-19T20:44:15.602Z,2.10
2023-02-19T20:46:47.058Z,2.55
2023-02-19T20:49:14.752Z,2.20
2023-02-19T20:51:46.754Z,1.98
2023-02-19T20:54:13.545Z,2.00
2023-02-19T20:56:48.037Z,2.13
2023-02-19T20:59:16.151Z,1.83
2023-02-19T21:01:43.407Z,2.05
2023-02-19T21:04:10.481Z,2.13
2023-02-19T21:06:37.010Z,2.00
2023-02-19T21:09:04.694Z,2.33
2023-02-19T21:11:31.728Z,2.40
2023-02-19T21:13:59.265Z,2.30
2023-02-19T21:16:27.282Z,1.83
2023-02-19T21:18:53.836Z,2.97
2023-02-19T21:21:24.986Z,2.00
2023-02-19T21:23:56.648Z,2.47
2023-02-19T21:26:24.072Z,2.35
2023-02-19T21:28:51.720Z,2.97
2023-02-19T21:31:18.518Z,3.05
2023-02-19T21:33:45.244Z,2.33
2023-02-19T21:36:12.076Z,2.30
2023-02-19T21:38:38.733Z,2.88
2023-02-19T21:41:05.231Z,2.17
2023-02-19T21:43:31.727Z,2.40
2023-02-19T21:45:58.265Z,2.45
2023-02-19T21:48:24.718Z,2.42
2023-02-19T21:50:51.137Z,2.13
2023-02-19T21:53:17.739Z,2.85
2023-02-19T21:55:57.460Z,2.38
2023-02-19T21:58:25.434Z,2.30
2023-02-19T22:00:53.797Z,2.30
2023-02-19T22:03:20.347Z,2.22
2023-02-19T22:05:46.778Z,2.17
2023-02-19T22:08:15.511Z,2.20
2023-02-19T22:10:42.485Z,2.22
2023-02-19T22:13:09.982Z,2.22
2023-02-19T22:15:36.730Z,2.63
2023-02-19T22:18:03.269Z,2.88
2023-02-19T22:20:29.669Z,2.60
2023-02-19T22:22:56.144Z,2.55
2023-02-19T22:25:22.586Z,2.28
2023-02-19T22:27:49.073Z,2.10
2023-02-19T22:30:16.082Z,2.28
2023-02-19T22:32:42.679Z,2.70
2023-02-19T22:35:09.188Z,2.70
2023-02-19T22:37:35.632Z,2.58
2023-02-19T22:40:02.062Z,2.30
2023-02-19T22:42:29.313Z,2.33
2023-02-19T22:44:55.930Z,2.47
2023-02-19T22:47:22.388Z,2.10
2023-02-19T22:49:48.813Z,2.60
2023-02-19T22:52:15.318Z,2.05
2023-02-19T22:54:41.751Z,3.17
2023-02-19T22:57:08.184Z,2.45
2023-02-19T22:59:34.638Z,2.97
2023-02-19T23:02:01.131Z,2.70
2023-02-19T23:04:27.573Z,3.22
2023-02-19T23:06:54.268Z,2.30
2023-02-19T23:09:26.503Z,2.55
2023-02-19T23:12:00.605Z,2.50
2023-02-19T23:14:27.025Z,2.47
2023-02-19T23:16:53.481Z,2.35
2023-02-19T23:19:19.978Z,2.20
2023-02-19T23:21:46.922Z,2.60
2023-02-19T23:24:14.207Z,2.47
2023-02-19T23:26:45.797Z,2.08
2023-02-19T23:29:16.263Z,2.30
2023-02-19T23:31:42.873Z,2.25
2023-02-19T23:34:09.573Z,2.65
2023-02-19T23:36:44.064Z,3.17
2023-02-19T23:39:12.590Z,2.45
2023-02-19T23:41:39.059Z,2.38
2023-02-19T23:44:05.720Z,2.28
2023-02-19T23:46:33.813Z,1.95
2023-02-19T23:49:00.200Z,2.42
2023-02-19T23:51:26.635Z,1.90
2023-02-19T23:53:53.046Z,2.35
2023-02-19T23:56:24.891Z,2.25
2023-02-19T23:58:51.353Z,2.70
